createdAt,value
2018-07-19T00:01:38.401Z,2.07
2018-07-19T00:03:40.985Z,2.30
2018-07-19T00:05:44.453Z,3.00
2018-07-19T00:07:47.071Z,2.40
2018-07-19T00:09:49.670Z,2.20
2018-07-19T00:11:52.321Z,2.10
2018-07-19T00:13:54.923Z,2.57
2018-07-19T00:15:58.415Z,2.37
2018-07-19T00:18:01.774Z,2.30
2018-07-19T00:20:04.481Z,3.30
2018-07-19T00:22:07.976Z,1.80
2018-07-19T00:24:11.346Z,3.97
2018-07-19T00:26:13.961Z,2.63
2018-07-19T00:28:16.574Z,3.47
2018-07-19T00:30:19.161Z,7.10
2018-07-19T00:32:21.794Z,2.33
2018-07-19T00:34:24.398Z,2.50
2018-07-19T00:36:27.037Z,1.50
2018-07-19T00:38:29.639Z,2.47
2018-07-19T00:40:32.366Z,2.60
2018-07-19T00:42:35.758Z,2.50
2018-07-19T00:44:39.127Z,2.27
2018-07-19T00:46:41.762Z,3.00
2018-07-19T00:48:44.356Z,3.40
2018-07-19T00:50:47.076Z,2.33
2018-07-19T00:52:49.670Z,2.93
2018-07-19T00:54:53.144Z,2.40
2018-07-19T00:56:56.742Z,2.17
2018-07-19T00:59:00.106Z,4.17
2018-07-19T01:01:02.741Z,2.83
2018-07-19T01:03:05.349Z,1.83
2018-07-19T01:05:07.932Z,5.23
2018-07-19T01:07:10.530Z,4.10
2018-07-19T01:09:13.064Z,3.80
2018-07-19T01:11:15.635Z,2.60
2018-07-19T01:13:18.206Z,2.40
2018-07-19T01:15:20.749Z,2.37
2018-07-19T01:17:23.360Z,4.30
2018-07-19T01:19:25.908Z,2.00
2018-07-19T01:21:28.479Z,3.13
2018-07-19T01:23:31.017Z,2.30
2018-07-19T01:25:34.509Z,3.00
2018-07-19T01:27:37.182Z,3.33
2018-07-19T01:29:39.748Z,3.17
2018-07-19T01:31:42.308Z,3.30
2018-07-19T01:33:44.901Z,4.10
2018-07-19T01:35:47.442Z,3.43
2018-07-19T01:37:50.123Z,2.43
2018-07-19T01:39:52.668Z,4.97
2018-07-19T01:41:55.225Z,2.43
2018-07-19T01:43:57.872Z,3.77
2018-07-19T01:46:00.517Z,6.67
2018-07-19T01:48:03.180Z,2.40
2018-07-19T01:50:05.735Z,4.20
2018-07-19T01:52:08.329Z,2.63
2018-07-19T01:54:10.857Z,2.57
2018-07-19T01:56:14.185Z,2.23
2018-07-19T01:58:16.765Z,4.90
2018-07-19T02:00:19.343Z,1.83
2018-07-19T02:02:21.912Z,4.40
2018-07-19T02:04:24.493Z,2.67
2018-07-19T02:06:27.056Z,2.53
2018-07-19T02:08:29.601Z,2.83
2018-07-19T02:10:32.221Z,3.20
2018-07-19T02:12:34.881Z,5.60
2018-07-19T02:14:37.425Z,2.53
2018-07-19T02:16:40.024Z,4.17
2018-07-19T02:18:42.572Z,2.23
2018-07-19T02:20:45.218Z,2.20
2018-07-19T02:22:47.870Z,4.23
2018-07-19T02:24:50.417Z,3.27
2018-07-19T02:26:53.041Z,2.40
2018-07-19T02:28:55.576Z,2.90
2018-07-19T02:30:58.121Z,6.73
2018-07-19T02:33:00.680Z,2.40
2018-07-19T02:35:03.305Z,2.80
2018-07-19T02:37:05.868Z,8.93
2018-07-19T02:39:08.460Z,3.23
2018-07-19T02:41:11.026Z,2.93
2018-07-19T02:43:13.596Z,3.50
2018-07-19T02:45:16.141Z,3.87
2018-07-19T02:47:18.722Z,3.30
2018-07-19T02:49:21.304Z,2.93
2018-07-19T02:51:23.848Z,2.77
2018-07-19T02:53:26.414Z,4.87
2018-07-19T02:55:29.069Z,3.17
2018-07-19T02:57:31.617Z,3.80
2018-07-19T02:59:34.165Z,3.80
2018-07-19T03:01:36.783Z,2.60
2018-07-19T03:03:39.424Z,6.63
2018-07-19T03:05:42.040Z,3.13
2018-07-19T03:07:44.780Z,2.60
2018-07-19T03:09:47.222Z,4.03
2018-07-19T03:11:49.781Z,2.50
2018-07-19T03:13:53.102Z,6.67
2018-07-19T03:15:55.725Z,5.57
2018-07-19T03:17:58.356Z,5.87
2018-07-19T03:20:01.038Z,2.93
2018-07-19T03:22:03.616Z,3.30
2018-07-19T03:24:06.230Z,3.23
2018-07-19T03:26:10.314Z,6.40
2018-07-19T03:28:12.968Z,2.97
2018-07-19T03:30:15.585Z,4.67
2018-07-19T03:32:18.141Z,3.90
2018-07-19T03:34:20.698Z,3.00
2018-07-19T03:36:23.230Z,2.33
2018-07-19T03:38:25.821Z,6.40
2018-07-19T03:40:28.417Z,3.27
2018-07-19T03:42:30.994Z,2.57
2018-07-19T03:44:33.554Z,4.67
2018-07-19T03:46:36.130Z,3.90
2018-07-19T03:48:38.700Z,2.60
2018-07-19T03:50:41.323Z,4.27
2018-07-19T03:52:43.872Z,2.40
2018-07-19T03:54:46.417Z,2.90
2018-07-19T03:56:48.964Z,3.80
2018-07-19T03:58:51.573Z,2.80
2018-07-19T04:00:54.121Z,4.40
2018-07-19T04:02:56.735Z,4.80
2018-07-19T04:04:59.289Z,5.30
2018-07-19T04:07:01.850Z,2.40
2018-07-19T04:09:04.438Z,2.53
2018-07-19T04:11:07.031Z,4.07
2018-07-19T04:13:09.624Z,4.20
2018-07-19T04:15:13.660Z,2.50
2018-07-19T04:17:16.275Z,8.77
2018-07-19T04:19:18.838Z,3.20
2018-07-19T04:21:21.421Z,4.23
2018-07-19T04:23:23.993Z,4.77
2018-07-19T04:25:26.570Z,2.60
2018-07-19T04:27:29.260Z,2.90
2018-07-19T04:29:32.018Z,2.83
2018-07-19T04:31:34.561Z,2.57
2018-07-19T04:33:37.973Z,5.37
2018-07-19T04:35:40.519Z,3.33
2018-07-19T04:37:43.132Z,2.97
2018-07-19T04:39:45.693Z,2.77
2018-07-19T04:41:48.313Z,3.17
2018-07-19T04:43:50.865Z,3.17
2018-07-19T04:45:53.431Z,3.10
2018-07-19T04:47:55.992Z,5.67
2018-07-19T04:49:58.577Z,2.87
2018-07-19T04:52:01.157Z,3.53
2018-07-19T04:54:03.856Z,2.50
2018-07-19T04:56:06.534Z,3.23
2018-07-19T04:58:09.084Z,3.43
2018-07-19T05:00:11.636Z,5.53
2018-07-19T05:02:14.178Z,2.90
2018-07-19T05:04:16.740Z,2.27
2018-07-19T05:06:29.993Z,8.33
2018-07-19T05:37:18.387Z,5.40
2018-07-19T05:47:25.931Z,3.33
2018-07-19T05:57:32.696Z,3.70
2018-07-19T06:17:17.724Z,3.30
2018-07-19T06:27:25.011Z,2.97
2018-07-19T06:37:28.920Z,3.60
2018-07-19T06:47:33.480Z,2.40
2018-07-19T06:57:41.360Z,4.27
2018-07-19T08:07:18.834Z,4.40
2018-07-19T08:27:24.255Z,3.47
2018-07-19T08:47:25.902Z,3.13
2018-07-19T09:07:23.180Z,11.40
2018-07-19T10:27:19.713Z,2.83
2018-07-19T10:37:29.737Z,2.50
2018-07-19T10:47:34.489Z,3.33
2018-07-19T10:57:40.864Z,2.57
2018-07-19T11:17:17.886Z,4.60
2018-07-19T11:37:19.335Z,5.00
2018-07-19T11:57:19.890Z,2.27
2018-07-19T12:17:20.932Z,3.43
2018-07-19T12:37:18.821Z,3.00
2018-07-19T12:57:14.379Z,2.60
2018-07-19T13:17:25.810Z,5.73
2018-07-19T13:37:19.520Z,3.57
2018-07-19T13:57:19.246Z,4.43
2018-07-19T14:17:18.990Z,4.90
2018-07-19T14:39:53.991Z,3.93
2018-07-19T14:49:32.215Z,2.77
2018-07-19T14:59:33.722Z,3.37
2018-07-19T15:09:26.926Z,7.43
2018-07-19T15:19:26.750Z,8.77
2018-07-19T15:29:25.732Z,3.87
2018-07-19T15:39:28.574Z,2.73
2018-07-19T15:49:26.835Z,7.97
2018-07-19T15:59:26.238Z,4.13
2018-07-19T16:09:25.422Z,2.80
2018-07-19T16:19:30.060Z,16.30
2018-07-19T16:29:26.953Z,2.90
2018-07-19T16:39:26.728Z,5.50
2018-07-19T16:49:26.892Z,4.90
2018-07-19T16:59:26.231Z,3.37
2018-07-19T17:09:27.016Z,11.03
2018-07-19T17:19:31.856Z,332.77
2018-07-19T17:21:34.439Z,537.07
2018-07-19T17:23:36.989Z,516.57
2018-07-19T17:25:39.542Z,531.30
2018-07-19T17:27:42.877Z,382.27
2018-07-19T17:29:45.439Z,1008.80
2018-07-19T17:31:48.032Z,244.87
2018-07-19T17:33:50.577Z,248.70
2018-07-19T17:35:53.145Z,137.07
2018-07-19T17:37:55.709Z,234.63
2018-07-19T17:39:58.308Z,334.13
2018-07-19T17:42:00.889Z,383.40
2018-07-19T17:44:03.436Z,653.63
2018-07-19T17:46:06.049Z,415.17
2018-07-19T17:48:08.583Z,761.27
2018-07-19T17:50:11.180Z,639.97
2018-07-19T17:52:13.786Z,72.00
2018-07-19T17:54:16.320Z,123.67
2018-07-19T17:56:18.996Z,130.47
2018-07-19T17:58:21.556Z,255.17
2018-07-19T18:00:24.113Z,439.57
2018-07-19T18:02:26.730Z,486.87
2018-07-19T18:04:29.300Z,399.57
2018-07-19T18:06:31.873Z,45.87
2018-07-19T18:08:34.416Z,9.07
2018-07-19T18:10:36.960Z,3.70
2018-07-19T18:12:39.565Z,16.03
2018-07-19T18:14:42.157Z,5.00
2018-07-19T18:16:44.762Z,2.83
2018-07-19T18:18:47.292Z,3.00
2018-07-19T18:20:49.880Z,2.97
2018-07-19T18:22:52.441Z,2.37
2018-07-19T18:24:55.126Z,3.90
2018-07-19T18:26:57.738Z,3.93
2018-07-19T18:29:01.045Z,3.83
2018-07-19T18:31:04.369Z,3.30
2018-07-19T18:33:06.958Z,7.50
2018-07-19T18:35:09.671Z,2.70
2018-07-19T18:37:12.212Z,10.00
2018-07-19T18:39:14.757Z,12.13
2018-07-19T18:41:17.325Z,2.83
2018-07-19T18:43:19.880Z,9.93
2018-07-19T18:45:23.256Z,4.37
2018-07-19T18:47:25.809Z,7.33
2018-07-19T18:49:28.377Z,4.10
2018-07-19T18:51:31.056Z,12.80
2018-07-19T18:53:33.609Z,250.83
2018-07-19T18:55:36.167Z,144.33
2018-07-19T18:57:38.729Z,27.60
2018-07-19T18:59:41.313Z,8.07
2018-07-19T19:01:43.882Z,3.57
2018-07-19T19:03:46.484Z,7.63
2018-07-19T19:05:49.302Z,4.33
2018-07-19T19:07:51.932Z,3.47
2018-07-19T19:09:54.476Z,5.30
2018-07-19T19:11:58.009Z,4.67
2018-07-19T19:14:01.372Z,3.50
2018-07-19T19:16:03.923Z,3.23
2018-07-19T19:18:07.260Z,2.80
2018-07-19T19:20:09.801Z,3.43
2018-07-19T19:22:12.370Z,7.27
2018-07-19T19:24:15.677Z,7.30
2018-07-19T19:26:18.289Z,6.03
2018-07-19T19:28:20.887Z,2.50
2018-07-19T19:30:23.397Z,2.60
2018-07-19T19:32:25.992Z,4.13
2018-07-19T19:34:28.516Z,11.20
2018-07-19T19:36:31.857Z,2.43
2018-07-19T19:38:34.421Z,4.70
2018-07-19T19:40:36.965Z,4.27
2018-07-19T19:42:39.538Z,5.60
2018-07-19T19:44:42.140Z,6.73
2018-07-19T19:46:44.685Z,3.23
2018-07-19T19:48:47.292Z,10.43
2018-07-19T19:50:49.973Z,5.20
2018-07-19T19:52:52.593Z,6.43
2018-07-19T19:54:55.913Z,10.33
2018-07-19T19:56:58.526Z,3.30
2018-07-19T19:59:01.099Z,4.13
2018-07-19T20:01:03.730Z,4.40
2018-07-19T20:03:06.281Z,2.50
2018-07-19T20:05:09.600Z,2.90
2018-07-19T20:07:12.200Z,3.00
2018-07-19T20:09:14.735Z,3.77
2018-07-19T20:11:17.340Z,6.10
2018-07-19T20:13:19.906Z,3.60
2018-07-19T20:15:22.493Z,2.73
2018-07-19T20:17:25.092Z,3.23
2018-07-19T20:19:27.741Z,4.87
2018-07-19T20:21:30.302Z,4.33
2018-07-19T20:23:32.894Z,5.57
2018-07-19T20:25:35.459Z,5.90
2018-07-19T20:27:38.005Z,7.50
2018-07-19T20:29:40.604Z,4.17
2018-07-19T20:31:43.144Z,4.07
2018-07-19T20:33:45.748Z,4.20
2018-07-19T20:35:48.466Z,4.10
2018-07-19T20:37:51.013Z,4.30
2018-07-19T20:39:54.385Z,5.83
2018-07-19T20:41:56.960Z,7.30
2018-07-19T20:43:59.526Z,8.23
2018-07-19T20:46:02.073Z,5.90
2018-07-19T20:48:05.397Z,3.97
2018-07-19T20:50:07.997Z,21.50
2018-07-19T20:52:10.544Z,12.10
2018-07-19T20:54:16.343Z,3.40
2018-07-19T20:56:19.908Z,6.43
2018-07-19T20:58:22.476Z,6.50
2018-07-19T21:00:25.051Z,4.33
2018-07-19T21:02:28.152Z,3.80
2018-07-19T21:04:31.621Z,3.00
2018-07-19T21:06:34.163Z,5.27
2018-07-19T21:08:36.759Z,7.93
2018-07-19T21:10:40.141Z,6.70
2018-07-19T21:12:42.685Z,4.93
2018-07-19T21:14:46.032Z,5.60
2018-07-19T21:16:48.610Z,4.60
2018-07-19T21:18:51.178Z,4.87
2018-07-19T21:20:53.725Z,5.80
2018-07-19T21:22:57.212Z,8.52
2018-07-19T21:24:59.790Z,4.70
2018-07-19T21:27:02.346Z,11.43
2018-07-19T21:29:05.682Z,4.70
2018-07-19T21:31:08.243Z,5.73
2018-07-19T21:33:10.856Z,9.13
2018-07-19T21:35:13.394Z,7.87
2018-07-19T21:37:15.929Z,7.43
2018-07-19T21:39:18.510Z,13.43
2018-07-19T21:41:21.066Z,9.70
2018-07-19T21:43:24.406Z,8.67
2018-07-19T21:45:26.950Z,4.80
2018-07-19T21:47:29.556Z,4.60
2018-07-19T21:49:32.141Z,7.37
2018-07-19T21:51:34.685Z,6.90
2018-07-19T21:53:37.266Z,5.50
2018-07-19T21:55:39.808Z,3.80
2018-07-19T21:57:43.123Z,4.13
2018-07-19T21:59:45.682Z,7.57
2018-07-19T22:01:48.239Z,3.13
2018-07-19T22:03:51.585Z,6.63
2018-07-19T22:05:54.193Z,5.67
2018-07-19T22:07:56.719Z,3.97
2018-07-19T22:09:59.310Z,7.10
2018-07-19T22:12:01.861Z,7.90
2018-07-19T22:14:05.241Z,4.00
2018-07-19T22:16:07.790Z,2.83
2018-07-19T22:18:11.113Z,5.00
2018-07-19T22:20:13.693Z,3.57
2018-07-19T22:22:16.239Z,9.73
2018-07-19T22:24:18.849Z,3.73
2018-07-19T22:26:21.478Z,7.00
2018-07-19T22:28:23.973Z,21.50
2018-07-19T22:30:26.539Z,4.37
2018-07-19T22:32:29.184Z,4.13
2018-07-19T22:34:31.816Z,4.70
2018-07-19T22:36:34.405Z,5.43
2018-07-19T22:38:36.946Z,3.63
2018-07-19T22:40:39.501Z,4.73
2018-07-19T22:42:42.053Z,3.40
2018-07-19T22:44:45.544Z,3.50
2018-07-19T22:46:48.061Z,3.73
2018-07-19T22:48:50.606Z,4.43
2018-07-19T22:50:53.942Z,3.60
2018-07-19T22:52:56.503Z,11.73
2018-07-19T22:54:59.086Z,4.97
2018-07-19T22:57:01.669Z,4.53
2018-07-19T22:59:04.221Z,10.83
2018-07-19T23:01:06.767Z,5.43
2018-07-19T23:03:09.388Z,4.63
2018-07-19T23:05:11.953Z,4.27
2018-07-19T23:07:14.517Z,3.87
2018-07-19T23:09:17.099Z,4.50
2018-07-19T23:11:19.672Z,4.90
2018-07-19T23:13:22.216Z,7.70
2018-07-19T23:15:24.820Z,3.27
2018-07-19T23:17:27.396Z,5.60
2018-07-19T23:19:29.961Z,4.97
2018-07-19T23:21:32.556Z,3.97
2018-07-19T23:23:35.098Z,4.47
2018-07-19T23:25:37.665Z,5.63
2018-07-19T23:27:40.216Z,4.30
2018-07-19T23:29:43.542Z,6.13
2018-07-19T23:31:46.085Z,6.57
2018-07-19T23:33:48.740Z,6.10
2018-07-19T23:35:51.285Z,7.30
2018-07-19T23:37:53.852Z,3.43
2018-07-19T23:39:56.463Z,3.87
2018-07-19T23:41:59.008Z,4.17
2018-07-19T23:44:01.569Z,4.97
2018-07-19T23:46:04.136Z,3.70
2018-07-19T23:48:06.678Z,7.10
2018-07-19T23:50:09.327Z,3.10
2018-07-19T23:52:12.785Z,3.00
2018-07-19T23:54:15.469Z,3.17
2018-07-19T23:56:18.049Z,2.80
2018-07-19T23:58:20.599Z,4.40
